createdAt,value
2022-11-12T11:40:07.628Z,24.85
2022-11-12T11:42:55.726Z,26.10
2022-11-12T11:45:31.581Z,29.23
2022-11-12T11:48:08.108Z,31.27
2022-11-12T11:50:40.543Z,23.13
2022-11-12T11:53:23.122Z,25.48
2022-11-12T11:55:58.585Z,21.73
2022-11-12T11:59:03.064Z,20.15
2022-11-12T12:01:43.419Z,24.00
2022-11-12T12:04:41.202Z,22.13
2022-11-12T12:07:26.975Z,20.27
2022-11-12T12:10:09.060Z,20.48
2022-11-12T12:12:51.134Z,20.27
2022-11-12T12:15:47.020Z,19.92
2022-11-12T12:18:25.227Z,20.08
2022-11-12T12:21:02.825Z,20.60
2022-11-12T12:23:36.704Z,19.88
2022-11-12T12:26:13.220Z,24.30
2022-11-12T12:28:47.442Z,20.73
2022-11-12T12:31:19.846Z,26.40
2022-11-12T12:33:54.295Z,38.03
2022-11-12T12:36:30.546Z,34.65
2022-11-12T12:39:14.951Z,29.88
2022-11-12T12:41:51.314Z,20.73
2022-11-12T12:44:22.208Z,17.80
2022-11-12T12:46:55.187Z,17.88
2022-11-12T12:49:30.727Z,18.05
2022-11-12T12:52:00.275Z,16.17
2022-11-12T12:54:56.337Z,17.73
2022-11-12T12:57:33.606Z,12.82
2022-11-12T13:00:29.203Z,12.02
2022-11-12T13:02:58.146Z,8.77
2022-11-12T13:05:31.088Z,9.20
2022-11-12T13:08:04.125Z,9.82
2022-11-12T13:10:51.658Z,10.48
2022-11-12T13:13:35.041Z,11.00
2022-11-12T13:16:05.623Z,9.77
2022-11-12T13:19:00.299Z,11.07
2022-11-12T13:21:30.070Z,10.32
2022-11-12T13:24:10.983Z,13.40
2022-11-12T13:26:52.154Z,14.07
2022-11-12T13:29:45.409Z,13.77
2022-11-12T13:32:38.672Z,13.40
2022-11-12T13:35:28.186Z,15.32
2022-11-12T13:38:01.967Z,15.90
2022-11-12T13:40:44.449Z,16.42
2022-11-12T13:43:36.297Z,16.10
2022-11-12T13:46:23.662Z,18.40
2022-11-12T13:49:00.271Z,16.17
2022-11-12T13:51:39.155Z,17.52
2022-11-12T13:54:31.377Z,13.68
2022-11-12T13:57:15.560Z,16.45
2022-11-12T13:59:44.674Z,15.63
2022-11-12T14:02:22.301Z,14.00
2022-11-12T14:04:52.975Z,11.07
2022-11-12T14:07:41.670Z,12.95
2022-11-12T14:10:20.539Z,4.88
2022-11-12T14:13:07.184Z,1.30
2022-11-12T14:15:53.021Z,2.10
2022-11-12T14:18:30.397Z,1.75
2022-11-12T14:21:06.619Z,2.53
2022-11-12T14:23:39.270Z,1.55
2022-11-12T14:26:08.034Z,2.03
2022-11-12T14:28:39.767Z,1.92
2022-11-12T14:31:14.309Z,1.30
2022-11-12T14:33:42.985Z,1.70
2022-11-12T14:36:16.874Z,1.65
2022-11-12T14:38:49.202Z,1.65
2022-11-12T14:41:22.054Z,1.50
2022-11-12T14:44:11.138Z,1.95
2022-11-12T14:46:47.397Z,1.30
2022-11-12T14:49:20.716Z,1.80
2022-11-12T14:51:54.970Z,1.63
2022-11-12T14:54:29.888Z,1.85
2022-11-12T14:57:02.017Z,1.60
2022-11-12T14:59:32.060Z,1.13
2022-11-12T15:07:33.763Z,1.50
2022-11-12T15:10:22.569Z,1.42
2022-11-12T15:12:51.281Z,1.58
2022-11-12T15:15:22.784Z,1.00
2022-11-12T15:17:58.751Z,1.38
2022-11-12T16:50:34.908Z,2.00
2022-11-12T17:57:37.318Z,3.78
2022-11-12T18:07:31.949Z,3.38
